Time;durP1;ratioP1;P1;durP2;ratioP2;P2;SDS_P1;SDS_P2;PMS_P1;PMS_P2;Temp;Humidity;BMP_temperature;BMP_pressure;BME280_temperature;BME280_humidity;BME280_pressure;Samples;Min_cycle;Max_cycle;Signal;HPM_P1;HPM_P2
2022/12/30 00:00:26;;;;;;;7.93;2.13;;;;;;;7.54;100.00;98695.22;5093875;28;20237;-79
2022/12/30 00:02:57;;;;;;;12.40;1.93;;;;;;;7.59;100.00;98698.41;5084194;28;20192;-79
2022/12/30 00:05:26;;;;;;;13.27;2.30;;;;;;;7.46;100.00;98690.38;5071031;28;20220;-79
2022/12/30 00:07:55;;;;;;;9.77;1.77;;;;;;;7.45;100.00;98715.03;5061656;28;20204;-80
2022/12/30 00:10:23;;;;;;;11.53;2.20;;;;;;;7.44;100.00;98709.88;5064423;28;20192;-79
2022/12/30 00:35:18;;;;;;;10.50;2.10;;;;;;;7.26;100.00;98740.75;4978093;28;20199;-79
2022/12/30 00:37:47;;;;;;;6.77;2.43;;;;;;;7.17;100.00;98736.84;4984528;28;20191;-80
2022/12/30 00:40:19;;;;;;;6.07;2.00;;;;;;;7.17;100.00;98730.75;4991737;28;20290;-79
2022/12/30 00:45:41;;;;;;;12.37;2.00;;;;;;;7.30;100.00;98730.88;4990599;28;20226;-79
2022/12/30 00:56:34;;;;;;;10.17;2.10;;;;;;;7.27;100.00;98747.72;5089043;28;20199;-79
2022/12/30 00:59:03;;;;;;;8.73;1.70;;;;;;;7.17;100.00;98744.75;5087977;28;20194;-80
2022/12/30 01:01:33;;;;;;;7.70;2.17;;;;;;;7.15;100.00;98753.69;5089323;28;20618;-79
2022/12/30 01:04:04;;;;;;;10.37;2.20;;;;;;;7.20;100.00;98754.25;5083127;28;20206;-79
2022/12/30 01:06:32;;;;;;;8.27;2.10;;;;;;;7.09;100.00;98756.66;5085704;28;20272;-79
2022/12/30 01:09:01;;;;;;;9.33;1.60;;;;;;;7.16;100.00;98758.84;5083801;28;20196;-79
2022/12/30 01:11:30;;;;;;;9.70;2.00;;;;;;;7.04;100.00;98775.31;5089050;28;20230;-79
2022/12/30 01:13:59;;;;;;;8.37;1.93;;;;;;;7.02;100.00;98782.47;5087394;28;20192;-79
2022/12/30 01:16:27;;;;;;;10.50;2.10;;;;;;;6.93;100.00;98792.66;5086548;28;20222;-79
2022/12/30 01:18:56;;;;;;;11.20;2.10;;;;;;;6.90;100.00;98791.06;5086019;28;20249;-79
2022/12/30 01:21:26;;;;;;;7.23;1.93;;;;;;;6.94;100.00;98799.63;5088045;28;20188;-79
2022/12/30 01:23:55;;;;;;;8.97;1.90;;;;;;;6.89;100.00;98805.16;5088765;28;20616;-79
2022/12/30 01:26:23;;;;;;;11.70;2.53;;;;;;;6.74;100.00;98808.59;5087282;28;20212;-79
2022/12/30 01:28:54;;;;;;;9.83;2.70;;;;;;;6.73;100.00;98820.06;5093512;28;20211;-79
2022/12/30 01:31:23;;;;;;;11.07;2.47;;;;;;;6.57;100.00;98826.16;5093224;28;20195;-79
2022/12/30 01:33:51;;;;;;;9.70;2.37;;;;;;;6.63;100.00;98818.84;5092271;28;20188;-79
2022/12/30 01:36:20;;;;;;;11.73;2.47;;;;;;;6.47;100.00;98824.97;5093503;28;20324;-79
2022/12/30 01:38:50;;;;;;;7.97;2.00;;;;;;;6.48;100.00;98831.91;5081953;28;20223;-79
2022/12/30 01:41:19;;;;;;;11.00;2.47;;;;;;;6.38;100.00;98825.44;5087702;28;20274;-79
2022/12/30 01:43:50;;;;;;;9.93;2.70;;;;;;;6.39;100.00;98834.19;5088371;28;20596;-79
2022/12/30 01:46:25;;;;;;;8.30;2.20;;;;;;;6.43;100.00;98833.06;5095058;27;20215;-79
2022/12/30 01:48:57;;;;;;;10.77;2.23;;;;;;;6.44;100.00;98829.50;5098639;27;20184;-79
2022/12/30 01:51:29;;;;;;;10.23;2.10;;;;;;;6.47;100.00;98843.38;5092399;28;20187;-79
2022/12/30 01:54:02;;;;;;;11.03;2.40;;;;;;;6.48;100.00;98838.97;5092127;28;20188;-79
2022/12/30 01:56:34;;;;;;;10.67;2.10;;;;;;;6.44;100.00;98835.63;5089777;28;20187;-79
2022/12/30 01:59:08;;;;;;;10.67;2.23;;;;;;;6.60;100.00;98846.19;5041508;28;20195;-80
2022/12/30 02:01:37;;;;;;;9.03;2.33;;;;;;;6.52;100.00;98838.69;5094465;28;20210;-79
2022/12/30 02:04:09;;;;;;;7.03;2.00;;;;;;;6.38;100.00;98835.09;5088305;28;20712;-79
2022/12/30 02:06:48;;;;;;;10.73;2.23;;;;;;;6.37;100.00;98843.91;5092041;28;20246;-80
2022/12/30 02:09:19;;;;;;;8.43;2.00;;;;;;;6.30;100.00;98840.75;5088845;28;20200;-80
2022/12/30 02:11:47;;;;;;;10.53;2.30;;;;;;;6.40;100.00;98844.63;5093557;28;20196;-80
2022/12/30 02:14:17;;;;;;;11.27;2.47;;;;;;;6.37;100.00;98842.16;5047664;28;20279;-79
2022/12/30 02:16:57;;;;;;;11.87;2.23;;;;;;;6.44;100.00;98834.78;5052337;28;20300;-80
2022/12/30 02:19:58;;;;;;;9.87;2.23;;;;;;;6.57;100.00;98843.72;5051429;28;20625;-79
2022/12/30 02:22:45;;;;;;;10.87;2.50;;;;;;;6.39;100.00;98842.91;5037214;28;20205;-80
2022/12/30 02:25:57;;;;;;;12.50;2.80;;;;;;;6.12;100.00;98847.81;5049022;28;20213;-79
2022/12/30 02:28:55;;;;;;;9.83;2.00;;;;;;;6.22;100.00;98851.66;5046027;28;20246;-80
2022/12/30 02:31:37;;;;;;;12.47;2.50;;;;;;;6.17;100.00;98852.81;5030007;28;20197;-79
2022/12/30 02:34:12;;;;;;;9.37;2.37;;;;;;;6.09;100.00;98847.13;5069587;28;20196;-80
2022/12/30 02:36:49;;;;;;;6.33;1.77;;;;;;;6.10;100.00;98847.03;5067021;28;20200;-80
2022/12/30 02:39:29;;;;;;;11.57;2.43;;;;;;;6.01;100.00;98855.41;5068734;28;20282;-79
2022/12/30 02:45:12;;;;;;;8.97;1.87;;;;;;;6.22;100.00;98846.41;5011048;28;20602;-79
2022/12/30 02:47:46;;;;;;;8.37;2.00;;;;;;;6.28;100.00;98853.16;5001066;28;20203;-80
2022/12/30 02:53:07;;;;;;;10.57;2.27;;;;;;;6.22;100.00;98849.03;5007210;28;20240;-79
2022/12/30 02:55:36;;;;;;;6.00;1.73;;;;;;;6.16;100.00;98856.38;4963213;28;20282;-80
2022/12/30 02:58:04;;;;;;;6.83;1.93;;;;;;;6.05;100.00;98869.22;5007955;28;20202;-80
2022/12/30 03:03:58;;;;;;;8.50;2.33;;;;;;;5.58;100.00;98875.00;5029142;28;20198;-79
2022/12/30 03:06:54;;;;;;;14.30;2.37;;;;;;;5.31;100.00;98877.19;5024455;28;20218;-79
2022/12/30 03:09:33;;;;;;;9.60;2.20;;;;;;;5.21;100.00;98883.78;5080296;28;20197;-79
2022/12/30 03:12:09;;;;;;;10.23;2.23;;;;;;;5.10;100.00;98882.50;5031447;28;20774;-79
2022/12/30 03:14:43;;;;;;;9.37;2.53;;;;;;;5.23;100.00;98877.53;5025620;28;20244;-79
2022/12/30 03:17:15;;;;;;;10.73;2.20;;;;;;;5.15;100.00;98877.91;5027467;28;20232;-79
2022/12/30 03:19:50;;;;;;;7.23;2.20;;;;;;;5.23;100.00;98872.28;5026195;28;20252;-80
2022/12/30 03:27:56;;;;;;;12.17;2.40;;;;;;;5.21;100.00;98875.91;4971876;28;20223;-80
2022/12/30 03:30:28;;;;;;;7.20;2.23;;;;;;;5.29;100.00;98876.38;4964835;28;20202;-79
2022/12/30 03:32:58;;;;;;;15.93;2.93;;;;;;;5.26;100.00;98877.41;4968945;28;20196;-79
2022/12/30 03:35:31;;;;;;;9.57;2.40;;;;;;;5.39;100.00;98882.91;4966330;28;20203;-80
2022/12/30 03:38:02;;;;;;;11.37;2.13;;;;;;;5.25;100.00;98872.22;5007951;28;20209;-79
2022/12/30 03:40:36;;;;;;;12.37;2.80;;;;;;;5.26;100.00;98871.28;5006504;28;20190;-80
2022/12/30 03:43:07;;;;;;;15.03;3.10;;;;;;;5.16;100.00;98860.38;5039034;28;20192;-79
2022/12/30 03:45:35;;;;;;;9.40;2.20;;;;;;;5.14;100.00;98863.06;5074952;28;20188;-79
2022/12/30 03:48:04;;;;;;;8.90;2.33;;;;;;;5.23;100.00;98867.03;5075266;28;20265;-79
2022/12/30 03:50:34;;;;;;;16.90;3.00;;;;;;;5.39;100.00;98864.53;5075043;28;20192;-79
2022/12/30 03:53:03;;;;;;;8.13;2.60;;;;;;;5.24;100.00;98874.00;5069337;28;20212;-79
2022/12/30 03:55:33;;;;;;;6.73;2.33;;;;;;;5.33;100.00;98881.44;5070262;28;20188;-79
2022/12/30 03:58:02;;;;;;;9.57;2.10;;;;;;;5.35;100.00;98887.47;5071086;28;20592;-80
2022/12/30 04:00:31;;;;;;;16.80;3.57;;;;;;;5.28;100.00;98886.03;5071654;28;20700;-80
2022/12/30 04:03:01;;;;;;;11.03;2.90;;;;;;;5.26;100.00;98887.91;5071416;28;20211;-80
2022/12/30 04:05:30;;;;;;;12.80;3.10;;;;;;;5.11;100.00;98905.19;5070850;28;20308;-80
2022/12/30 04:08:00;;;;;;;11.47;2.70;;;;;;;5.22;100.00;98909.13;5072615;28;20341;-80
2022/12/30 04:10:29;;;;;;;9.57;2.17;;;;;;;5.07;100.00;98903.66;5074415;28;20207;-80
2022/12/30 04:12:57;;;;;;;5.83;2.33;;;;;;;5.06;100.00;98907.19;5072636;28;20191;-79
2022/12/30 04:15:26;;;;;;;10.73;2.50;;;;;;;5.11;100.00;98907.81;5073943;28;20202;-80
2022/12/30 04:17:54;;;;;;;6.33;2.10;;;;;;;5.13;100.00;98905.16;5011122;28;20201;-80
2022/12/30 04:20:23;;;;;;;11.60;2.67;;;;;;;5.20;100.00;98905.69;4930509;29;20732;-79
2022/12/30 04:22:51;;;;;;;10.90;2.30;;;;;;;5.32;100.00;98895.50;4913465;29;20189;-80
2022/12/30 04:25:21;;;;;;;13.20;2.20;;;;;;;5.24;100.00;98909.91;4926835;29;20201;-79
2022/12/30 04:27:50;;;;;;;12.37;2.50;;;;;;;5.12;100.00;98927.06;4927364;29;20228;-79
2022/12/30 04:30:20;;;;;;;9.47;2.67;;;;;;;5.23;100.00;98937.94;4899596;29;20209;-79
2022/12/30 04:32:48;;;;;;;13.30;3.07;;;;;;;5.21;100.00;98926.66;4927447;29;20395;-79
2022/12/30 04:35:17;;;;;;;10.93;2.67;;;;;;;5.20;100.00;98918.81;4940519;28;20210;-79
2022/12/30 04:37:45;;;;;;;8.73;2.20;;;;;;;5.31;100.00;98908.69;5001745;28;20363;-79
2022/12/30 04:40:14;;;;;;;8.03;2.27;;;;;;;5.27;100.00;98915.00;5001886;28;20261;-79
2022/12/30 04:42:45;;;;;;;7.63;2.60;;;;;;;5.31;100.00;98919.22;5006400;28;20198;-79
2022/12/30 04:45:14;;;;;;;11.80;2.43;;;;;;;5.33;100.00;98933.97;5034769;28;20199;-79
2022/12/30 04:47:44;;;;;;;12.50;2.80;;;;;;;5.36;100.00;98930.34;5068556;28;20251;-79
2022/12/30 04:50:13;;;;;;;13.10;2.40;;;;;;;5.31;100.00;98920.06;5071855;28;20215;-79
2022/12/30 04:52:41;;;;;;;10.57;2.80;;;;;;;5.22;100.00;98919.63;5076300;28;20199;-79
2022/12/30 04:55:10;;;;;;;17.67;2.80;;;;;;;5.23;100.00;98927.44;5032550;28;20256;-79
2022/12/30 04:57:42;;;;;;;13.70;2.57;;;;;;;5.31;100.00;98929.72;5028590;28;20291;-79
2022/12/30 05:00:14;;;;;;;13.17;2.20;;;;;;;5.32;100.00;98926.16;5032524;28;20206;-79
2022/12/30 05:02:43;;;;;;;13.97;2.87;;;;;;;5.13;100.00;98924.38;4940343;29;20661;-80
2022/12/30 05:05:11;;;;;;;11.77;2.30;;;;;;;5.14;100.00;98920.81;4901230;29;20276;-79
2022/12/30 05:07:40;;;;;;;10.97;2.70;;;;;;;5.03;100.00;98924.88;4934531;29;20224;-79
2022/12/30 05:10:10;;;;;;;7.47;2.37;;;;;;;4.97;100.00;98923.34;4930585;29;20360;-79
2022/12/30 05:12:40;;;;;;;12.97;2.77;;;;;;;4.93;100.00;98939.31;4940159;28;20195;-80
2022/12/30 05:15:11;;;;;;;17.40;2.80;;;;;;;5.12;100.00;98937.56;4989428;28;20195;-79
2022/12/30 05:17:42;;;;;;;8.87;2.43;;;;;;;5.03;100.00;98943.25;4985871;28;20306;-80
2022/12/30 05:20:11;;;;;;;9.57;2.60;;;;;;;5.05;100.00;98958.00;4981950;28;20207;-79
2022/12/30 05:22:39;;;;;;;11.13;2.83;;;;;;;4.87;100.00;98956.19;4989596;28;20210;-79
2022/12/30 05:27:56;;;;;;;16.57;2.80;;;;;;;5.00;100.00;98972.22;5052546;28;20212;-79
2022/12/30 05:30:26;;;;;;;11.87;2.80;;;;;;;5.09;100.00;98966.56;5074164;28;20204;-79
2022/12/30 05:32:54;;;;;;;12.40;2.53;;;;;;;5.20;100.00;98974.81;5069504;28;20252;-79
2022/12/30 05:35:23;;;;;;;8.93;2.83;;;;;;;5.18;100.00;98966.16;5072656;28;20257;-80
2022/12/30 05:37:51;;;;;;;16.60;3.17;;;;;;;5.28;100.00;98977.09;5069636;28;20720;-80
2022/12/30 05:40:21;;;;;;;11.90;2.60;;;;;;;5.36;100.00;98967.94;5098172;28;20659;-79
2022/12/30 05:42:51;;;;;;;10.83;2.57;;;;;;;5.38;100.00;98971.34;5087714;28;20203;-80
2022/12/30 05:45:20;;;;;;;13.97;2.53;;;;;;;5.44;100.00;98963.19;5090409;28;20192;-80
2022/12/30 05:47:50;;;;;;;9.33;2.70;;;;;;;5.37;100.00;98958.28;5091436;28;20211;-80
2022/12/30 05:50:18;;;;;;;12.17;3.00;;;;;;;5.47;100.00;98965.66;5088438;28;20200;-79
2022/12/30 05:52:47;;;;;;;12.70;3.27;;;;;;;5.60;100.00;98987.00;5088013;28;20257;-80
2022/12/30 05:55:17;;;;;;;11.43;3.20;;;;;;;5.65;100.00;98989.38;5089883;28;20196;-79
2022/12/30 05:57:45;;;;;;;15.07;3.00;;;;;;;5.38;100.00;98981.00;5091069;28;20260;-79
2022/12/30 06:00:16;;;;;;;10.10;2.67;;;;;;;5.54;100.00;98974.13;5095224;28;20199;-79
2022/12/30 06:02:46;;;;;;;13.03;2.60;;;;;;;5.59;100.00;98981.78;5089970;28;20199;-80
2022/12/30 06:05:16;;;;;;;20.27;3.17;;;;;;;5.63;100.00;98984.22;5088730;28;20238;-80
2022/12/30 06:07:45;;;;;;;9.20;2.60;;;;;;;5.78;100.00;98979.13;5034280;28;20218;-80
2022/12/30 06:10:14;;;;;;;13.73;3.13;;;;;;;5.74;100.00;98979.28;5025125;28;20206;-79
2022/12/30 06:12:42;;;;;;;15.37;2.90;;;;;;;5.80;100.00;98983.44;5030939;28;20201;-79
2022/12/30 06:15:11;;;;;;;10.07;2.60;;;;;;;5.72;100.00;98964.53;5032677;28;20193;-79
2022/12/30 06:17:41;;;;;;;18.07;2.60;;;;;;;5.77;100.00;98977.44;5030834;28;20206;-79
2022/12/30 06:20:11;;;;;;;16.50;3.30;;;;;;;5.88;100.00;98962.84;5026834;28;20248;-80
2022/12/30 06:22:41;;;;;;;15.00;2.87;;;;;;;5.86;100.00;98969.97;5028076;28;20687;-80
2022/12/30 06:25:10;;;;;;;10.67;2.50;;;;;;;5.97;100.00;98980.00;4982991;28;20193;-80
2022/12/30 06:27:38;;;;;;;9.43;2.20;;;;;;;5.92;100.00;98971.50;5025261;28;20229;-80
2022/12/30 06:30:08;;;;;;;11.10;2.43;;;;;;;6.00;100.00;98974.63;5028066;28;20197;-79
2022/12/30 06:32:36;;;;;;;9.97;2.77;;;;;;;5.82;100.00;98983.34;5027863;28;20200;-80
2022/12/30 06:35:06;;;;;;;19.50;3.43;;;;;;;5.92;100.00;98982.88;5029028;28;20190;-79
2022/12/30 06:37:36;;;;;;;7.47;2.37;;;;;;;5.83;100.00;98978.00;5023964;28;20262;-79
2022/12/30 06:40:09;;;;;;;14.90;3.17;;;;;;;5.72;100.00;98967.16;5030170;28;20213;-79
2022/12/30 06:42:38;;;;;;;9.97;2.63;;;;;;;5.85;100.00;98964.78;5054527;28;20366;-80
2022/12/30 06:45:08;;;;;;;14.57;2.93;;;;;;;5.57;100.00;98970.50;5067037;28;20204;-79
2022/12/30 06:47:36;;;;;;;11.40;2.87;;;;;;;5.49;100.00;98965.59;5009734;28;20201;-79
2022/12/30 06:50:06;;;;;;;15.97;2.80;;;;;;;5.69;100.00;98964.66;5005693;28;20194;-80
2022/12/30 06:52:34;;;;;;;11.77;2.60;;;;;;;5.77;100.00;98965.16;5004255;28;20202;-80
2022/12/30 06:55:03;;;;;;;8.80;2.80;;;;;;;5.77;100.00;98959.91;5008246;28;20207;-80
2022/12/30 06:57:34;;;;;;;10.40;3.43;;;;;;;5.82;100.00;98962.31;5003544;28;20257;-79
2022/12/30 07:00:04;;;;;;;13.67;3.20;;;;;;;5.88;100.00;98954.97;5000484;28;20269;-80
2022/12/30 07:02:32;;;;;;;12.00;3.00;;;;;;;5.77;100.00;98961.69;5005337;28;20201;-79
2022/12/30 07:05:01;;;;;;;13.17;3.33;;;;;;;5.83;100.00;98954.34;5007789;28;20205;-80
2022/12/30 07:07:30;;;;;;;12.73;3.10;;;;;;;5.74;100.00;98954.78;5019310;28;20204;-79
2022/12/30 07:09:58;;;;;;;13.33;4.43;;;;;;;5.68;100.00;98966.44;5021538;28;20224;-79
2022/12/30 07:12:28;;;;;;;11.83;3.93;;;;;;;5.55;100.00;98970.56;5057898;28;20211;-80
2022/12/30 07:14:59;;;;;;;13.80;4.20;;;;;;;5.53;100.00;98968.94;5090781;28;20203;-80
2022/12/30 07:17:28;;;;;;;15.83;4.00;;;;;;;5.42;100.00;98959.78;5088275;28;20192;-79
2022/12/30 07:19:58;;;;;;;16.83;4.73;;;;;;;5.42;100.00;98953.69;5052367;28;20388;-79
2022/12/30 07:22:27;;;;;;;14.27;4.53;;;;;;;5.47;100.00;98965.66;5049642;28;20193;-79
2022/12/30 07:24:59;;;;;;;13.33;4.33;;;;;;;5.45;100.00;98961.41;5043542;28;20673;-79
2022/12/30 07:27:30;;;;;;;15.73;4.37;;;;;;;5.48;100.00;98974.41;5040030;28;20633;-80
2022/12/30 07:30:00;;;;;;;15.73;4.87;;;;;;;5.51;100.00;98965.56;5045047;28;20216;-79
2022/12/30 07:32:28;;;;;;;13.33;4.47;;;;;;;5.54;100.00;98974.13;5042435;28;20207;-80
2022/12/30 07:34:57;;;;;;;10.63;5.10;;;;;;;5.55;100.00;98967.09;5039636;28;20235;-79
2022/12/30 07:37:26;;;;;;;13.33;5.10;;;;;;;5.52;100.00;98969.88;5048780;28;20235;-79
2022/12/30 07:39:56;;;;;;;13.80;4.60;;;;;;;5.54;100.00;98966.25;5055888;28;20222;-80
2022/12/30 07:42:26;;;;;;;22.27;5.57;;;;;;;5.52;100.00;98969.88;5081264;28;20200;-79
2022/12/30 07:44:55;;;;;;;18.10;5.93;;;;;;;5.52;100.00;98967.25;5091496;28;20225;-79
2022/12/30 07:47:25;;;;;;;22.87;5.67;;;;;;;5.49;100.00;98962.13;5087223;28;20196;-79
2022/12/30 07:49:54;;;;;;;13.13;5.17;;;;;;;5.49;100.00;98967.38;5088905;28;20249;-79
2022/12/30 07:52:26;;;;;;;16.47;5.67;;;;;;;5.51;100.00;98974.28;5090503;28;20191;-79
2022/12/30 07:54:55;;;;;;;16.17;5.33;;;;;;;5.54;100.00;98973.28;5047046;28;20201;-79
2022/12/30 07:57:24;;;;;;;15.80;5.90;;;;;;;5.57;100.00;98975.75;5043383;28;20209;-79
2022/12/30 07:59:52;;;;;;;17.17;5.97;;;;;;;5.59;100.00;98971.28;5044170;28;20201;-79
2022/12/30 08:02:22;;;;;;;22.70;6.43;;;;;;;5.64;100.00;98974.56;5047195;28;20216;-79
2022/12/30 08:04:55;;;;;;;12.93;5.97;;;;;;;5.67;100.00;98983.13;5043396;28;20197;-79
2022/12/30 08:07:23;;;;;;;18.17;7.30;;;;;;;5.68;100.00;98979.56;5045500;28;20200;-79
2022/12/30 08:09:52;;;;;;;16.87;7.43;;;;;;;5.69;100.00;98973.44;5046838;28;20728;-79
2022/12/30 08:12:22;;;;;;;19.67;8.13;;;;;;;5.83;100.00;98961.41;5049654;28;20196;-79
2022/12/30 08:14:50;;;;;;;14.20;6.80;;;;;;;5.83;100.00;98954.34;5045735;28;20530;-79
2022/12/30 08:17:20;;;;;;;18.87;7.83;;;;;;;5.88;100.00;98954.97;5049517;28;20644;-78
2022/12/30 08:19:51;;;;;;;15.63;7.60;;;;;;;5.84;100.00;98958.69;5046191;28;20207;-79
2022/12/30 08:22:22;;;;;;;13.87;7.63;;;;;;;5.94;100.00;98959.13;5048897;28;20204;-79
2022/12/30 08:24:52;;;;;;;18.70;7.27;;;;;;;5.93;100.00;98971.41;5046429;28;20327;-79
2022/12/30 08:27:23;;;;;;;23.40;7.50;;;;;;;6.03;100.00;98971.81;5045366;28;20255;-79
2022/12/30 08:29:52;;;;;;;16.37;7.17;;;;;;;6.00;100.00;98964.09;5047819;28;20216;-79
2022/12/30 08:32:21;;;;;;;20.07;7.43;;;;;;;6.12;100.00;98981.06;5066459;28;20643;-80
2022/12/30 08:34:51;;;;;;;15.73;7.27;;;;;;;6.26;100.00;98965.44;5084712;28;20198;-79
2022/12/30 08:37:20;;;;;;;14.43;6.63;;;;;;;6.29;100.00;98979.31;5085428;28;20199;-79
2022/12/30 08:39:53;;;;;;;20.10;6.70;;;;;;;6.29;100.00;98965.31;5084444;28;20232;-79
2022/12/30 08:42:24;;;;;;;14.27;7.10;;;;;;;6.26;100.00;98973.31;5095094;28;20188;-80
2022/12/30 08:44:55;;;;;;;18.03;8.00;;;;;;;6.40;100.00;98975.28;5086984;28;20219;-80
2022/12/30 08:47:23;;;;;;;17.20;7.17;;;;;;;6.40;100.00;98970.03;5084033;28;20279;-79
2022/12/30 08:49:53;;;;;;;19.90;7.17;;;;;;;6.36;100.00;98961.41;5090507;28;20220;-79
2022/12/30 08:52:24;;;;;;;19.70;7.93;;;;;;;6.41;100.00;98969.94;5087530;28;20200;-80
2022/12/30 08:54:53;;;;;;;16.63;6.40;;;;;;;6.45;100.00;98965.38;5084742;28;20237;-80
2022/12/30 08:57:22;;;;;;;14.00;6.07;;;;;;;6.49;100.00;98959.88;5095052;28;20260;-79
2022/12/30 08:59:51;;;;;;;15.53;5.90;;;;;;;6.54;100.00;98955.22;5099846;27;20191;-80
2022/12/30 09:02:19;;;;;;;20.33;5.57;;;;;;;6.51;100.00;98952.75;5094912;28;20195;-79
2022/12/30 09:04:47;;;;;;;16.97;6.23;;;;;;;6.53;100.00;98945.63;5089439;28;20249;-79
2022/12/30 09:07:18;;;;;;;14.10;5.37;;;;;;;6.64;100.00;98931.06;5093693;28;20187;-79
2022/12/30 09:10:11;;;;;;;15.50;4.93;;;;;;;6.67;100.00;98928.31;5096415;28;20719;-79
2022/12/30 09:12:40;;;;;;;15.60;5.40;;;;;;;6.80;100.00;98922.31;5092368;28;20203;-79
2022/12/30 09:15:13;;;;;;;12.67;5.60;;;;;;;6.85;100.00;98922.06;5093738;28;20188;-80
2022/12/30 09:17:43;;;;;;;18.60;6.00;;;;;;;6.79;100.00;98914.50;4977438;28;20196;-79
2022/12/30 09:20:13;;;;;;;13.73;5.53;;;;;;;6.60;100.00;98904.09;4912899;29;20204;-79
2022/12/30 09:22:54;;;;;;;15.60;5.67;;;;;;;6.52;100.00;98911.50;4913698;29;20363;-80
2022/12/30 09:25:23;;;;;;;17.50;5.67;;;;;;;6.54;100.00;98899.97;4912915;29;20205;-79
2022/12/30 09:27:52;;;;;;;18.40;6.80;;;;;;;6.71;100.00;98907.00;4910406;29;20206;-79
2022/12/30 09:30:22;;;;;;;22.70;8.50;;;;;;;6.71;100.00;98895.63;4913600;29;20272;-80
2022/12/30 09:32:52;;;;;;;16.90;7.10;;;;;;;6.80;100.00;98887.25;4913696;29;20210;-79
2022/12/30 09:35:22;;;;;;;15.07;6.47;;;;;;;6.92;100.00;98896.25;4944599;28;20340;-80
2022/12/30 09:37:56;;;;;;;12.37;6.07;;;;;;;6.96;100.00;98893.41;5029434;28;20202;-79
2022/12/30 09:40:45;;;;;;;14.47;5.27;;;;;;;7.09;100.00;98877.78;5023665;28;20264;-80
2022/12/30 09:43:20;;;;;;;14.57;5.43;;;;;;;7.08;100.00;98884.00;5026327;28;20190;-79
2022/12/30 09:45:59;;;;;;;14.70;4.97;;;;;;;7.14;100.00;98873.97;5029817;28;20202;-79
2022/12/30 09:48:35;;;;;;;16.27;7.00;;;;;;;7.14;100.00;98852.91;5029291;28;20248;-79
2022/12/30 09:51:08;;;;;;;17.53;5.37;;;;;;;7.10;100.00;98845.25;5055013;28;20216;-79
2022/12/30 09:53:45;;;;;;;14.87;5.57;;;;;;;7.12;100.00;98841.59;5093762;28;20279;-79
2022/12/30 09:56:19;;;;;;;12.23;5.27;;;;;;;7.26;100.00;98848.75;5093419;27;20195;-79
2022/12/30 09:58:52;;;;;;;23.80;5.83;;;;;;;7.21;100.00;98842.03;5092515;28;20661;-79
2022/12/30 10:01:31;;;;;;;15.00;4.70;;;;;;;7.28;100.00;98828.44;5089045;28;20396;-79
2022/12/30 10:04:03;;;;;;;12.77;4.77;;;;;;;7.34;100.00;98828.09;5091515;28;20207;-79
2022/12/30 10:06:38;;;;;;;13.03;4.07;;;;;;;7.32;100.00;98824.69;5086960;28;20188;-79
2022/12/30 10:09:36;;;;;;;13.83;4.87;;;;;;;7.45;100.00;98820.44;5088975;28;20244;-79
2022/12/30 10:12:32;;;;;;;19.97;7.60;;;;;;;7.47;100.00;98804.53;5071269;28;20204;-79
2022/12/30 10:15:17;;;;;;;15.67;6.57;;;;;;;7.57;100.00;98805.69;5068643;28;20196;-79
2022/12/30 10:18:06;;;;;;;11.10;4.30;;;;;;;7.76;100.00;98784.41;5070229;28;20196;-80
2022/12/30 10:20:48;;;;;;;13.43;3.60;;;;;;;7.80;100.00;98777.16;5069989;28;20210;-79
2022/12/30 10:23:29;;;;;;;10.63;3.70;;;;;;;7.72;100.00;98767.94;5065819;28;20192;-79
2022/12/30 10:26:06;;;;;;;10.27;3.40;;;;;;;7.93;100.00;98760.53;5067637;28;20211;-79
2022/12/30 10:28:37;;;;;;;14.90;4.63;;;;;;;8.01;100.00;98770.63;5069602;28;20201;-79
2022/12/30 10:31:16;;;;;;;14.07;4.57;;;;;;;7.98;100.00;98766.38;5085153;28;20312;-79
2022/12/30 10:33:49;;;;;;;10.77;3.40;;;;;;;8.07;100.00;98741.22;5089653;28;20192;-79
2022/12/30 10:36:21;;;;;;;12.37;3.43;;;;;;;8.16;100.00;98753.84;5013618;28;20201;-79
2022/12/30 10:38:51;;;;;;;12.53;3.10;;;;;;;8.11;100.00;98749.81;5010982;28;20241;-80
2022/12/30 10:41:34;;;;;;;12.60;3.17;;;;;;;8.17;100.00;98752.06;5008918;28;20217;-79
2022/12/30 10:44:19;;;;;;;7.63;2.60;;;;;;;8.37;100.00;98750.88;5009200;28;20198;-79
2022/12/30 10:47:14;;;;;;;12.93;2.90;;;;;;;8.50;100.00;98747.41;5006896;28;20190;-80
2022/12/30 10:50:11;;;;;;;11.20;3.30;;;;;;;8.51;100.00;98732.41;5012459;28;20198;-79
2022/12/30 10:52:42;;;;;;;8.17;3.53;;;;;;;8.53;100.00;98726.09;5006256;28;20340;-80
2022/12/30 10:55:24;;;;;;;12.63;3.50;;;;;;;8.44;100.00;98702.91;5049912;28;20219;-80
2022/12/30 10:58:00;;;;;;;9.70;3.00;;;;;;;8.63;100.00;98702.59;5068757;28;20249;-80
2022/12/30 11:00:37;;;;;;;9.57;2.90;;;;;;;8.48;100.00;98693.84;5070547;28;20328;-79
2022/12/30 11:03:15;;;;;;;8.73;2.83;;;;;;;8.52;100.00;98668.97;5067855;28;20196;-79
2022/12/30 11:05:44;;;;;;;11.70;3.27;;;;;;;8.55;100.00;98665.28;5033173;28;20205;-79
2022/12/30 11:08:25;;;;;;;9.57;3.07;;;;;;;8.71;100.00;98658.09;4971543;28;20751;-80
2022/12/30 11:11:00;;;;;;;6.60;2.57;;;;;;;8.89;100.00;98662.19;4967305;28;20230;-80
2022/12/30 11:16:34;;;;;;;6.67;3.07;;;;;;;9.27;100.00;98642.97;4915630;29;20403;-80
2022/12/30 11:19:04;;;;;;;9.63;3.17;;;;;;;9.24;100.00;98616.72;4913148;29;20198;-80
2022/12/30 11:21:42;;;;;;;5.20;2.00;;;;;;;9.37;100.00;98607.03;4946492;28;20199;-80
2022/12/30 11:24:18;;;;;;;7.43;2.50;;;;;;;9.66;100.00;98620.06;4989722;28;20724;-80
2022/12/30 11:26:50;;;;;;;4.80;1.60;;;;;;;9.75;100.00;98620.25;4978885;28;20288;-80
2022/12/30 11:29:24;;;;;;;4.87;1.80;;;;;;;9.87;100.00;98612.41;5008346;28;20194;-80
2022/12/30 11:31:55;;;;;;;4.67;1.90;;;;;;;10.04;100.00;98620.88;5015609;28;20693;-80
2022/12/30 11:34:32;;;;;;;8.07;1.83;;;;;;;9.91;100.00;98632.41;5068787;28;20192;-81
2022/12/30 11:37:21;;;;;;;5.33;1.50;;;;;;;9.62;100.00;98619.41;5070751;28;20192;-80
2022/12/30 11:39:50;;;;;;;8.10;2.00;;;;;;;9.94;100.00;98611.00;5030385;28;20240;-79
2022/12/30 11:42:29;;;;;;;7.70;2.10;;;;;;;9.90;100.00;98606.91;5045188;28;20189;-80
2022/12/30 11:45:18;;;;;;;6.30;1.73;;;;;;;9.67;100.00;98587.38;5036672;28;20204;-80
2022/12/30 11:47:50;;;;;;;4.87;1.60;;;;;;;9.45;100.00;98595.91;5009172;28;20198;-80
2022/12/30 11:50:22;;;;;;;6.63;1.97;;;;;;;9.29;100.00;98582.06;5004803;28;20202;-80
2022/12/30 11:52:54;;;;;;;4.87;2.03;;;;;;;9.19;100.00;98587.13;4947865;28;20240;-80
2022/12/30 11:55:25;;;;;;;6.23;1.90;;;;;;;9.16;100.00;98582.03;4950220;28;20192;-80
2022/12/30 11:58:08;;;;;;;5.47;1.83;;;;;;;9.29;100.00;98582.91;4971854;28;20230;-79
2022/12/30 12:00:49;;;;;;;3.47;1.43;;;;;;;9.18;100.00;98582.81;4975346;28;20710;-79
2022/12/30 12:03:22;;;;;;;5.83;1.77;;;;;;;9.08;100.00;98582.56;4971855;28;20207;-80
2022/12/30 12:06:09;;;;;;;4.37;1.80;;;;;;;8.99;100.00;98571.78;4955444;28;20231;-79
2022/12/30 12:08:47;;;;;;;4.53;1.80;;;;;;;8.99;100.00;98577.06;4911004;29;20232;-80
2022/12/30 12:11:23;;;;;;;8.47;2.10;;;;;;;9.13;100.00;98595.47;4937997;29;20247;-79
2022/12/30 12:14:03;;;;;;;4.80;1.70;;;;;;;9.04;100.00;98583.72;4947128;29;20247;-80
2022/12/30 12:16:38;;;;;;;3.97;1.60;;;;;;;8.98;100.00;98586.78;4947214;29;20199;-79
2022/12/30 12:19:22;;;;;;;6.07;2.10;;;;;;;9.06;100.00;98573.03;4948646;29;20210;-80
2022/12/30 12:21:54;;;;;;;4.63;1.63;;;;;;;9.04;100.00;98573.16;4902492;29;20320;-79
2022/12/30 12:24:27;;;;;;;3.77;1.50;;;;;;;9.04;100.00;98575.78;4944180;28;20250;-80
2022/12/30 12:27:06;;;;;;;1.60;1.17;;;;;;;8.98;100.00;98570.94;4974565;28;20188;-80
2022/12/30 12:29:36;;;;;;;6.20;2.30;;;;;;;8.92;100.00;98558.13;4985640;28;20199;-80
2022/12/30 12:32:34;;;;;;;4.87;1.90;;;;;;;8.81;100.00;98569.41;4988056;28;20269;-80
2022/12/30 12:35:28;;;;;;;3.93;1.57;;;;;;;8.94;100.00;98565.94;4970183;28;20200;-80
2022/12/30 12:38:10;;;;;;;4.17;1.70;;;;;;;8.90;100.00;98549.47;4930523;29;20201;-79
2022/12/30 12:41:06;;;;;;;4.50;1.83;;;;;;;8.88;100.00;98536.38;4975624;28;20198;-80
2022/12/30 12:43:47;;;;;;;5.90;1.70;;;;;;;8.88;100.00;98511.75;4990526;28;20202;-79
2022/12/30 12:46:29;;;;;;;3.63;1.60;;;;;;;8.87;100.00;98488.91;4927057;29;20220;-79
2022/12/30 12:49:23;;;;;;;7.00;2.03;;;;;;;8.88;100.00;98503.84;4928890;29;20688;-80